This is the latest recevied weather packets stored in our database for station/object OK2ILA-6. If no packets are shown the sender has not sent any weather packets the latest 10 day(s).
| Time | Temp. | Humidity | Pressure | Rain* | Wind** | Luminosity | Snow |
|---|---|---|---|---|---|---|---|
| 1777550403 | 13.33° C | 32% | 1028.9 hPa | - | - | - | - |
| 1777548003 | 12.22° C | 34% | 1029.2 hPa | - | - | - | - |
| 1777545003 | 12.78° C | 35% | 1029.6 hPa | - | - | - | - |
| 1777544402 | 12.22° C | 35% | 1029.6 hPa | - | - | - | - |
| 1777543803 | 12.22° C | 35% | 1029.8 hPa | - | - | - | - |
| 1777542603 | 11.67° C | 34% | 1029.9 hPa | - | - | - | - |
| 1777542003 | 12.22° C | 34% | 1029.9 hPa | - | - | - | - |
| 1777541402 | 11.67° C | 38% | 1030 hPa | - | - | - | - |
| 1777540803 | 12.22° C | 36% | 1030 hPa | - | - | - | - |
| 1777540203 | 12.22° C | 38% | 1030.1 hPa | - | - | - | - |
| 1777537203 | 10° C | 40% | 1030.4 hPa | - | - | - | - |
| 1777536603 | 11.11° C | 39% | 1030.4 hPa | - | - | - | - |
| 1777534803 | 10° C | 42% | 1030.4 hPa | - | - | - | - |
| 1777534203 | 10° C | 42% | 1030.4 hPa | - | - | - | - |
| 1777533602 | 9.44° C | 47% | 1030.4 hPa | - | - | - | - |
| 1777533002 | 8.89° C | 48% | 1030.6 hPa | - | - | - | - |
| 1777532403 | 8.89° C | 49% | 1030.7 hPa | - | - | - | - |
| 1777531803 | 8.33° C | 50% | 1030.8 hPa | - | - | - | - |
| 1777531203 | 7.22° C | 52% | 1030.8 hPa | - | - | - | - |
| 1777530602 | 6.67° C | 54% | 1030.6 hPa | - | - | - | - |
| 1777530002 | 6.11° C | 56% | 1030.6 hPa | - | - | - | - |
| 1777529403 | 5.56° C | 57% | 1030.6 hPa | - | - | - | - |
| 1777528803 | 4.44° C | 64% | 1030.6 hPa | - | - | - | - |
| 1777528203 | 3.33° C | 68% | 1030.5 hPa | - | - | - | - |
| 1777527602 | 2.22° C | 72% | 1030.6 hPa | - | - | - | - |
* Rain since midnight (hover to see other rain measurements)
** Current wind speed in m/s (hover to see current wind gust speed)